San Ignacio, Argentina
Current Conditions -  °F | °C
As of 3:00 PM on Thursday 30 Oct 2014 (Local Time) from SGEN Reporting Station
Overcast Overcast  
Wind Chill: 68°   Ceiling: 6000
Heat Index: 68°   Visibility: 6mi
Dew Point: 64°   Wind: 15mph
Humidity: 88%   Direction: 50°NE
Pressure: 29.77"   Gusts: NA
Location:  27.27°S, 55.53°W
Report Text: SGEN 301800Z 05013KT 9999 SCT020 OVC060 20/18 Q1008
Loading
Personal Weather Stations






























Interactive Weather Map
Tropical Storm Tracking
New forecast layout! Learn more

10-Day Weather Forecast

Advertisements
Track Severe Weather on mobile